Time;durP1;ratioP1;P1;durP2;ratioP2;P2;SDS_P1;SDS_P2;PMS_P1;PMS_P2;Temp;Humidity;BMP_temperature;BMP_pressure;BME280_temperature;BME280_humidity;BME280_pressure;Samples;Min_cycle;Max_cycle;Signal;HPM_P1;HPM_P2
2022/11/28 00:02:19;;;;;;;9.00;6.15;;;;;;;11.38;61.30;100891.56;4939317;29;20054;-64
2022/11/28 00:04:49;;;;;;;10.18;6.13;;;;;;;11.41;61.46;100885.94;4939420;29;20078;-63
2022/11/28 00:07:16;;;;;;;7.93;5.97;;;;;;;11.42;61.19;100893.91;4904329;29;20055;-64
2022/11/28 00:09:43;;;;;;;8.57;6.20;;;;;;;11.43;61.40;100895.63;4920359;29;20056;-64
2022/11/28 00:12:09;;;;;;;7.57;5.95;;;;;;;11.45;61.18;100893.69;4920403;29;20048;-65
2022/11/28 00:14:39;;;;;;;8.88;5.93;;;;;;;11.47;61.46;100890.88;4903944;29;20048;-64
2022/11/28 00:17:06;;;;;;;8.57;6.18;;;;;;;11.50;61.20;100887.97;4920369;29;20048;-64
2022/11/28 00:19:32;;;;;;;7.75;6.35;;;;;;;11.51;61.42;100888.81;4903540;29;20099;-64
2022/11/28 00:21:59;;;;;;;9.25;5.80;;;;;;;11.53;61.45;100892.25;4919862;29;20063;-64
2022/11/28 00:24:25;;;;;;;7.75;6.07;;;;;;;11.54;61.61;100886.75;4925735;29;20559;-65
2022/11/28 00:26:52;;;;;;;6.78;6.10;;;;;;;11.55;61.65;100880.41;4920556;29;20048;-64
2022/11/28 00:29:18;;;;;;;8.93;6.80;;;;;;;11.59;61.37;100878.34;4919925;29;20052;-64
2022/11/28 00:31:45;;;;;;;9.43;6.95;;;;;;;11.58;61.45;100877.50;4919898;29;20040;-64
2022/11/28 00:34:13;;;;;;;9.30;7.32;;;;;;;11.59;61.42;100871.13;4920244;29;20494;-64
2022/11/28 00:36:44;;;;;;;9.50;7.80;;;;;;;11.61;61.52;100868.31;4920234;29;20052;-64
2022/11/28 00:39:10;;;;;;;8.05;6.35;;;;;;;11.63;61.26;100869.06;4919170;29;20116;-64
2022/11/28 00:41:37;;;;;;;7.60;6.10;;;;;;;11.66;61.24;100869.69;4902882;29;20421;-65
2022/11/28 00:44:03;;;;;;;9.60;6.30;;;;;;;11.69;61.43;100864.09;4903084;29;20403;-64
2022/11/28 00:46:30;;;;;;;6.40;5.53;;;;;;;11.73;61.69;100862.03;4902704;29;20127;-64
2022/11/28 00:48:57;;;;;;;9.27;6.05;;;;;;;11.74;61.67;100864.59;4902496;29;20055;-65
2022/11/28 00:51:27;;;;;;;7.18;5.60;;;;;;;11.76;61.50;100857.28;4902685;29;20048;-64
2022/11/28 00:53:55;;;;;;;8.50;5.85;;;;;;;11.78;61.39;100859.88;4902697;29;20048;-64
2022/11/28 00:56:29;;;;;;;7.28;6.00;;;;;;;11.79;61.27;100856.22;4902584;29;20051;-64
2022/11/28 00:58:56;;;;;;;6.95;5.70;;;;;;;11.81;61.40;100862.34;4920067;29;20048;-65
2022/11/28 01:01:32;;;;;;;17.48;6.97;;;;;;;11.83;61.66;100859.53;4902567;29;20044;-64
2022/11/28 01:04:02;;;;;;;6.97;5.68;;;;;;;11.86;61.64;100859.28;4902732;29;20052;-64
2022/11/28 01:06:37;;;;;;;7.00;5.40;;;;;;;11.89;61.42;100846.50;4902091;29;20499;-64
2022/11/28 01:09:07;;;;;;;6.63;5.65;;;;;;;11.92;61.68;100850.78;4919306;29;20040;-64
2022/11/28 01:11:37;;;;;;;7.82;6.10;;;;;;;11.93;61.41;100855.19;4918332;29;20052;-64
2022/11/28 01:14:04;;;;;;;7.43;5.65;;;;;;;11.95;61.83;100853.25;4919171;29;20555;-64
2022/11/28 01:16:31;;;;;;;7.63;5.40;;;;;;;11.94;61.26;100860.44;4919225;29;20036;-65
2022/11/28 01:18:58;;;;;;;7.20;5.60;;;;;;;11.96;61.39;100853.13;4919667;29;20048;-63
2022/11/28 01:21:25;;;;;;;8.30;6.32;;;;;;;11.96;61.74;100853.13;4919546;29;20048;-64
2022/11/28 01:23:51;;;;;;;6.88;5.53;;;;;;;11.95;61.71;100854.09;4918914;29;20044;-64
2022/11/28 01:26:21;;;;;;;7.07;6.38;;;;;;;11.98;61.69;100859.25;4919048;29;20491;-65
2022/11/28 01:28:48;;;;;;;7.35;5.75;;;;;;;12.00;61.76;100856.44;4918919;29;20047;-64
2022/11/28 01:31:17;;;;;;;9.20;6.40;;;;;;;12.01;61.78;100853.63;4918879;29;20099;-63
2022/11/28 01:33:44;;;;;;;7.28;5.72;;;;;;;12.03;61.85;100851.69;4918720;29;20067;-64
2022/11/28 01:36:12;;;;;;;11.65;6.35;;;;;;;12.01;61.85;100848.25;4875024;29;20449;-64
2022/11/28 01:38:39;;;;;;;6.40;5.80;;;;;;;11.99;61.65;100843.94;4900080;29;20053;-64
2022/11/28 01:41:06;;;;;;;9.55;6.18;;;;;;;12.00;61.69;100845.66;4898831;29;20048;-65
2022/11/28 01:43:34;;;;;;;9.48;6.40;;;;;;;12.01;61.67;100853.63;4910652;29;20059;-64
2022/11/28 01:46:02;;;;;;;7.72;6.25;;;;;;;12.03;61.76;100853.50;4901912;29;20044;-65
2022/11/28 01:48:40;;;;;;;7.22;5.88;;;;;;;12.01;61.63;100850.94;4901665;29;20114;-63
2022/11/28 01:51:09;;;;;;;7.70;6.10;;;;;;;12.04;61.67;100855.22;4919092;29;20071;-64
2022/11/28 01:53:40;;;;;;;7.72;6.32;;;;;;;12.04;61.72;100856.09;4918228;29;20044;-64
2022/11/28 01:56:13;;;;;;;7.55;6.40;;;;;;;12.05;61.84;100854.25;4902242;29;20083;-64
2022/11/28 01:58:45;;;;;;;9.75;6.45;;;;;;;12.05;61.93;100846.16;4918207;29;20048;-65
2022/11/28 02:01:12;;;;;;;11.13;6.60;;;;;;;12.06;61.69;100846.06;4901436;29;20048;-65
2022/11/28 02:03:45;;;;;;;9.18;6.40;;;;;;;12.05;61.79;100844.34;4901386;29;20062;-64
2022/11/28 02:06:14;;;;;;;8.00;6.18;;;;;;;12.06;61.91;100843.34;4885345;29;20048;-64
2022/11/28 02:08:41;;;;;;;7.65;6.10;;;;;;;12.05;61.82;100847.03;4901544;29;20048;-65
2022/11/28 02:11:22;;;;;;;6.82;5.80;;;;;;;12.05;61.92;100838.09;4918158;29;20071;-65
2022/11/28 02:14:04;;;;;;;8.07;5.95;;;;;;;12.04;61.90;100842.63;4918117;29;20079;-64
2022/11/28 02:16:44;;;;;;;7.88;5.05;;;;;;;12.04;61.91;100839.94;4915537;29;20502;-64
2022/11/28 02:19:43;;;;;;;8.13;5.10;;;;;;;12.05;62.06;100840.78;4936932;29;20418;-64
2022/11/28 02:22:22;;;;;;;6.05;5.07;;;;;;;12.07;61.89;100831.63;4897051;29;20063;-64
2022/11/28 02:24:54;;;;;;;6.15;4.43;;;;;;;12.08;61.94;100830.63;4901830;29;20051;-64
2022/11/28 02:28:05;;;;;;;6.05;4.75;;;;;;;12.07;62.26;100836.16;4918737;29;20048;-65
2022/11/28 02:30:53;;;;;;;4.85;4.10;;;;;;;12.07;62.19;100833.44;4917934;29;20052;-64
2022/11/28 02:33:32;;;;;;;7.93;4.35;;;;;;;12.03;62.24;100826.59;4917673;29;20052;-64
2022/11/28 02:36:26;;;;;;;5.95;4.70;;;;;;;12.02;62.28;100824.88;4917798;29;20055;-65
2022/11/28 02:39:17;;;;;;;5.88;4.82;;;;;;;12.05;62.72;100827.31;4918271;29;20483;-65
2022/11/28 02:41:52;;;;;;;9.32;4.90;;;;;;;12.06;62.32;100826.34;4900498;29;20463;-65
2022/11/28 02:44:29;;;;;;;7.15;5.00;;;;;;;12.06;62.81;100826.34;4900903;29;20044;-65
2022/11/28 02:47:17;;;;;;;6.15;4.85;;;;;;;12.08;62.49;100827.09;4916884;29;20066;-64
2022/11/28 02:49:56;;;;;;;8.82;5.03;;;;;;;12.09;62.44;100826.97;4898980;29;20104;-64
2022/11/28 02:52:36;;;;;;;8.50;5.28;;;;;;;12.07;62.72;100823.53;4881714;29;20067;-64
2022/11/28 02:55:04;;;;;;;5.95;5.15;;;;;;;12.07;62.62;100820.00;4898569;29;20048;-65
2022/11/28 02:57:39;;;;;;;6.72;5.28;;;;;;;12.08;62.92;100817.19;4898597;29;20045;-65
2022/11/28 03:00:32;;;;;;;11.10;5.72;;;;;;;12.09;62.71;100818.91;4899140;29;20105;-65
2022/11/28 03:02:59;;;;;;;6.95;5.80;;;;;;;12.08;62.91;100819.88;4898300;29;20048;-65
2022/11/28 03:05:54;;;;;;;6.63;5.78;;;;;;;12.05;63.09;100819.25;4898414;29;20048;-65
2022/11/28 03:08:50;;;;;;;8.98;5.80;;;;;;;12.05;63.02;100813.88;4884786;29;20121;-65
2022/11/28 03:11:54;;;;;;;7.22;5.85;;;;;;;12.01;62.92;100813.25;4900335;29;20533;-64
2022/11/28 03:14:39;;;;;;;8.23;5.95;;;;;;;12.00;63.09;100813.38;4900228;29;20052;-65
2022/11/28 03:17:20;;;;;;;7.93;6.22;;;;;;;11.97;63.02;100814.47;4917114;29;20048;-65
2022/11/28 03:19:56;;;;;;;8.27;5.45;;;;;;;11.97;63.22;100816.28;4899733;29;20044;-65
2022/11/28 03:22:33;;;;;;;7.55;5.45;;;;;;;11.96;63.17;100814.59;4884724;29;20139;-65
2022/11/28 03:25:07;;;;;;;8.55;5.32;;;;;;;11.99;63.21;100814.34;4917750;29;20055;-65
2022/11/28 03:27:46;;;;;;;7.63;5.70;;;;;;;11.98;63.29;100813.50;4917066;29;20048;-64
2022/11/28 03:30:18;;;;;;;7.25;6.10;;;;;;;11.96;63.24;100812.75;4900374;29;20510;-65
2022/11/28 03:32:50;;;;;;;8.13;5.78;;;;;;;11.97;63.29;100814.47;4900491;29;20087;-64
2022/11/28 03:35:20;;;;;;;6.43;5.43;;;;;;;11.96;63.17;100810.06;4900647;29;20044;-64
2022/11/28 03:37:52;;;;;;;8.10;6.07;;;;;;;11.96;63.69;100815.44;4917158;29;20048;-64
2022/11/28 03:40:30;;;;;;;7.70;5.80;;;;;;;11.95;63.76;100813.72;4917192;29;20099;-64
2022/11/28 03:43:02;;;;;;;10.45;5.10;;;;;;;11.97;63.76;100813.59;4917057;29;20041;-64
2022/11/28 03:45:36;;;;;;;8.15;6.20;;;;;;;11.97;63.55;100813.59;4900353;29;20092;-64
2022/11/28 03:48:11;;;;;;;8.00;5.70;;;;;;;11.98;63.88;100808.09;4917226;29;20059;-64
2022/11/28 03:50:45;;;;;;;6.78;5.40;;;;;;;12.00;63.83;100814.22;4916854;29;20491;-64
2022/11/28 03:53:21;;;;;;;7.53;5.75;;;;;;;12.00;63.58;100806.16;4916849;29;20052;-64
2022/11/28 03:55:56;;;;;;;5.97;4.80;;;;;;;12.00;63.72;100811.53;4916966;29;20041;-64
2022/11/28 03:58:37;;;;;;;6.57;5.18;;;;;;;12.00;63.97;100810.69;4917195;29;20051;-65
2022/11/28 04:01:46;;;;;;;6.00;4.90;;;;;;;11.98;63.82;100808.09;4899578;29;20036;-64
2022/11/28 04:04:27;;;;;;;8.10;5.45;;;;;;;11.95;63.56;100811.03;4822062;29;20055;-65
2022/11/28 04:07:25;;;;;;;5.90;4.97;;;;;;;11.92;63.66;100808.59;4822200;29;20061;-64
2022/11/28 04:10:15;;;;;;;6.38;4.78;;;;;;;11.91;63.73;100809.56;4892157;29;20091;-65
2022/11/28 04:12:58;;;;;;;5.50;4.68;;;;;;;11.92;63.77;100816.66;4885757;29;20112;-63
2022/11/28 04:15:43;;;;;;;8.73;4.80;;;;;;;11.91;63.86;100814.09;4898278;29;20060;-64
2022/11/28 04:18:30;;;;;;;5.80;4.60;;;;;;;11.91;64.08;100814.09;4897845;29;20044;-63
2022/11/28 04:21:09;;;;;;;8.25;5.60;;;;;;;11.92;64.14;100819.34;4904848;29;20131;-65
2022/11/28 04:23:39;;;;;;;8.48;5.75;;;;;;;11.93;64.15;100813.00;4903293;29;20169;-64
2022/11/28 04:26:33;;;;;;;7.35;5.30;;;;;;;11.95;64.19;100815.56;4903871;29;20079;-63
2022/11/28 04:29:04;;;;;;;7.32;5.00;;;;;;;11.95;63.90;100816.41;4905543;29;20054;-64
2022/11/28 04:31:32;;;;;;;6.20;4.90;;;;;;;11.94;64.05;100816.53;4909443;29;20404;-64
2022/11/28 04:34:06;;;;;;;7.47;5.07;;;;;;;11.94;64.17;100814.69;4884158;29;20056;-65
2022/11/28 04:36:37;;;;;;;6.40;4.70;;;;;;;11.94;64.23;100819.22;4901651;29;20044;-65
2022/11/28 04:39:11;;;;;;;8.70;5.75;;;;;;;11.93;64.07;100815.69;4901660;29;20087;-66
2022/11/28 04:41:44;;;;;;;5.25;4.70;;;;;;;11.92;64.00;100823.88;4914315;29;20040;-65
2022/11/28 04:44:33;;;;;;;6.65;4.72;;;;;;;11.90;64.33;100818.59;4920124;29;20044;-64
2022/11/28 04:46:59;;;;;;;7.93;4.75;;;;;;;11.90;63.90;100825.81;4890283;29;20048;-65
2022/11/28 04:49:29;;;;;;;7.40;5.63;;;;;;;11.88;64.21;100820.53;4919527;29;20044;-65
2022/11/28 04:52:25;;;;;;;5.40;4.70;;;;;;;11.89;64.25;100811.50;4933996;29;20044;-64
2022/11/28 04:55:36;;;;;;;5.88;4.95;;;;;;;11.90;64.48;100821.28;4922376;29;20080;-64
2022/11/28 04:58:12;;;;;;;7.10;5.00;;;;;;;11.93;64.47;100820.19;4921742;29;20055;-65
2022/11/28 05:00:39;;;;;;;;;;;;;;;11.95;64.19;100820.94;4927884;29;20049;-64
2022/11/28 05:03:06;;;;;;;5.60;4.90;;;;;;;11.97;64.16;100813.59;4900422;29;19979;-64
2022/11/28 05:05:46;;;;;;;6.55;5.10;;;;;;;11.96;64.24;100817.28;4900558;29;20053;-64
2022/11/28 05:08:13;;;;;;;7.07;5.53;;;;;;;11.93;64.07;100820.19;4901118;29;20044;-65
2022/11/28 05:10:41;;;;;;;7.45;5.78;;;;;;;11.92;64.53;100822.03;4905210;29;20491;-64
2022/11/28 05:13:07;;;;;;;6.50;5.80;;;;;;;11.92;64.47;100816.66;4902065;29;20056;-64
2022/11/28 05:15:34;;;;;;;7.93;5.60;;;;;;;11.92;64.54;100815.78;4919139;29;20048;-65
2022/11/28 05:18:00;;;;;;;7.55;5.50;;;;;;;11.90;64.55;100826.69;4919247;29;20068;-64
2022/11/28 05:20:28;;;;;;;7.78;5.18;;;;;;;11.92;64.68;100822.03;4901146;29;20474;-64
2022/11/28 05:22:54;;;;;;;7.70;6.03;;;;;;;11.93;64.35;100822.91;4919069;29;20048;-64
2022/11/28 05:25:21;;;;;;;9.07;5.55;;;;;;;11.91;64.27;100824.84;4919126;29;20043;-64
2022/11/28 05:27:48;;;;;;;8.02;6.00;;;;;;;11.91;64.63;100831.09;4919162;29;20048;-64
2022/11/28 05:30:14;;;;;;;9.18;5.97;;;;;;;11.89;64.79;100827.66;4917035;29;20514;-64
2022/11/28 05:32:41;;;;;;;7.00;5.72;;;;;;;11.89;64.91;100819.59;4882864;29;20037;-65
2022/11/28 05:35:08;;;;;;;8.43;5.50;;;;;;;11.89;64.76;100827.66;4900451;29;20060;-64
2022/11/28 05:37:35;;;;;;;7.55;5.82;;;;;;;11.88;64.76;100833.13;4899915;29;20444;-64
2022/11/28 05:40:01;;;;;;;7.70;5.43;;;;;;;11.89;64.97;100838.41;4925167;29;20044;-64
2022/11/28 05:42:31;;;;;;;7.60;6.05;;;;;;;11.88;64.87;100838.50;4936413;29;20099;-64
2022/11/28 05:44:58;;;;;;;9.38;6.30;;;;;;;11.88;65.01;100835.81;4920546;29;20048;-64
2022/11/28 05:47:25;;;;;;;7.32;6.10;;;;;;;11.90;64.56;100836.59;4937449;29;20040;-64
2022/11/28 05:49:51;;;;;;;7.25;6.07;;;;;;;11.90;64.78;100834.75;4936667;29;20051;-64
2022/11/28 05:52:18;;;;;;;9.27;6.82;;;;;;;11.90;64.56;100837.44;4910688;29;20039;-64
2022/11/28 05:54:44;;;;;;;9.75;6.57;;;;;;;11.92;64.75;100837.31;4919548;29;20051;-63
2022/11/28 05:57:11;;;;;;;8.52;7.03;;;;;;;11.90;64.90;100834.75;4936634;29;20079;-64
2022/11/28 05:59:37;;;;;;;7.70;6.32;;;;;;;11.89;64.79;100830.34;4903840;29;20048;-64
2022/11/28 06:02:04;;;;;;;9.88;6.53;;;;;;;11.90;64.82;100832.06;4920620;29;20055;-63
2022/11/28 06:04:30;;;;;;;9.68;6.45;;;;;;;11.90;64.99;100829.38;4900677;29;20048;-64
2022/11/28 06:06:57;;;;;;;9.63;6.95;;;;;;;11.90;64.97;100829.38;4917489;29;20067;-65
2022/11/28 06:09:23;;;;;;;8.10;7.28;;;;;;;11.90;65.03;100826.69;4900405;29;20115;-65
2022/11/28 06:11:51;;;;;;;10.63;6.95;;;;;;;11.91;65.01;100820.31;4917045;29;20055;-64
2022/11/28 06:14:18;;;;;;;10.68;7.00;;;;;;;11.90;64.91;100826.69;4917853;29;20040;-64
2022/11/28 06:16:45;;;;;;;8.45;7.47;;;;;;;11.88;65.16;100825.91;4917316;29;20050;-64
2022/11/28 06:19:11;;;;;;;9.48;7.78;;;;;;;11.89;64.65;100824.06;4917531;29;20131;-64
2022/11/28 06:21:38;;;;;;;11.23;7.72;;;;;;;11.89;64.69;100827.66;4907330;29;20138;-63
2022/11/28 06:24:06;;;;;;;8.10;6.50;;;;;;;11.90;65.19;100833.91;4936235;29;20051;-64
2022/11/28 06:26:32;;;;;;;8.88;7.68;;;;;;;11.87;64.78;100834.09;4919588;29;20044;-64
2022/11/28 06:28:59;;;;;;;9.70;7.97;;;;;;;11.88;64.77;100838.50;4936009;29;20044;-65
2022/11/28 06:31:28;;;;;;;10.38;7.05;;;;;;;11.88;64.93;100841.19;4934557;29;20051;-64
2022/11/28 06:33:57;;;;;;;8.60;7.22;;;;;;;11.90;64.85;100850.03;4936092;29;20469;-63
2022/11/28 06:36:25;;;;;;;9.75;6.68;;;;;;;11.89;64.94;100845.59;4936020;29;20398;-64
2022/11/28 06:38:52;;;;;;;7.72;6.78;;;;;;;11.88;65.03;100850.13;4935244;29;20504;-63
2022/11/28 06:41:20;;;;;;;9.93;7.40;;;;;;;11.88;64.91;100843.88;4926783;29;20048;-63
2022/11/28 06:43:46;;;;;;;10.15;8.05;;;;;;;11.90;65.21;100841.97;4915822;29;20055;-64
2022/11/28 06:46:17;;;;;;;9.02;7.30;;;;;;;11.92;65.24;100850.78;4917149;29;20126;-64
2022/11/28 06:48:45;;;;;;;8.52;7.57;;;;;;;11.94;65.00;100852.38;4881727;29;1059864;-64
2022/11/28 06:51:12;;;;;;;8.82;7.93;;;;;;;11.97;65.02;100851.28;4899799;29;20044;-63
2022/11/28 06:53:39;;;;;;;9.23;8.23;;;;;;;11.96;64.98;100858.50;4917406;29;20044;-63
2022/11/28 06:56:08;;;;;;;9.68;7.97;;;;;;;11.97;65.13;100857.53;4917544;29;20055;-64
2022/11/28 06:58:35;;;;;;;14.18;8.23;;;;;;;11.97;64.94;100857.53;4917505;29;20044;-64
2022/11/28 07:01:15;;;;;;;11.13;8.20;;;;;;;11.95;64.99;100858.63;4917044;29;20103;-64
2022/11/28 07:03:43;;;;;;;9.02;8.13;;;;;;;11.96;65.28;100857.66;4917400;29;20045;-64
2022/11/28 07:06:11;;;;;;;12.23;8.25;;;;;;;11.98;65.22;100858.38;4917215;29;20052;-64
2022/11/28 07:08:37;;;;;;;8.98;7.30;;;;;;;11.98;65.19;100858.38;4914666;29;20044;-66
2022/11/28 07:11:11;;;;;;;11.35;8.32;;;;;;;11.97;65.06;100853.97;4936028;29;20447;-66
2022/11/28 07:13:39;;;;;;;11.07;7.85;;;;;;;11.96;65.24;100857.66;4917675;29;20040;-64
2022/11/28 07:16:06;;;;;;;12.20;9.68;;;;;;;11.95;65.15;100858.63;4916924;29;20066;-63
2022/11/28 07:18:33;;;;;;;11.13;7.78;;;;;;;11.95;64.99;100864.88;4916199;29;20044;-64
2022/11/28 07:21:00;;;;;;;12.05;9.32;;;;;;;11.95;65.06;100872.06;4916945;29;20127;-64
2022/11/28 07:23:27;;;;;;;9.73;8.73;;;;;;;11.95;65.00;100864.88;4917159;29;20099;-63
2022/11/28 07:25:58;;;;;;;10.50;8.80;;;;;;;11.97;65.25;100867.44;4917201;29;20055;-63
2022/11/28 07:28:26;;;;;;;11.90;8.85;;;;;;;11.97;65.06;100862.91;4898661;29;20048;-64
2022/11/28 07:31:00;;;;;;;10.25;8.90;;;;;;;11.97;65.41;100868.28;4916837;29;20055;-63
2022/11/28 07:33:27;;;;;;;9.70;8.43;;;;;;;11.99;65.33;100869.03;4914080;29;20103;-63
2022/11/28 07:35:58;;;;;;;11.68;9.32;;;;;;;12.00;65.25;100859.13;4897934;29;20047;-65
2022/11/28 07:38:24;;;;;;;11.00;8.95;;;;;;;12.01;65.32;100860.84;4883435;29;20040;-64
2022/11/28 07:40:51;;;;;;;9.88;8.43;;;;;;;12.00;65.36;100864.50;4881470;29;20045;-62
2022/11/28 07:43:17;;;;;;;9.45;8.23;;;;;;;11.99;65.34;100863.66;4880834;29;20059;-63
2022/11/28 07:45:44;;;;;;;10.50;9.02;;;;;;;12.00;65.33;100868.06;4897820;29;20116;-63
2022/11/28 07:48:25;;;;;;;10.05;8.60;;;;;;;11.99;65.14;100870.88;4880914;29;20503;-63
2022/11/28 07:50:52;;;;;;;11.98;9.68;;;;;;;11.97;65.30;100873.69;4879340;29;20056;-63
2022/11/28 07:53:18;;;;;;;9.70;8.38;;;;;;;12.01;65.17;100875.16;4878228;29;20077;-63
2022/11/28 07:55:45;;;;;;;10.27;8.30;;;;;;;12.03;65.23;100877.72;4897159;29;20044;-63
2022/11/28 07:58:12;;;;;;;9.85;8.73;;;;;;;12.03;65.14;100881.28;4899730;29;20045;-62
2022/11/28 08:00:38;;;;;;;10.23;8.90;;;;;;;12.05;65.12;100878.47;4899670;29;20067;-63
2022/11/28 08:03:05;;;;;;;10.05;9.02;;;;;;;12.06;65.48;100882.88;4899175;29;20044;-64
2022/11/28 08:05:32;;;;;;;13.02;8.35;;;;;;;12.09;65.16;100880.81;4900184;29;20566;-64
2022/11/28 08:07:58;;;;;;;11.90;9.38;;;;;;;12.09;65.45;100890.72;4901550;29;20422;-63
2022/11/28 08:10:25;;;;;;;8.75;7.85;;;;;;;12.09;65.08;100888.88;4917212;29;20083;-62
2022/11/28 08:12:52;;;;;;;9.63;8.60;;;;;;;12.10;65.19;100892.44;4919059;29;20040;-63
2022/11/28 08:15:19;;;;;;;10.10;9.05;;;;;;;12.11;65.50;100896.00;4919940;29;20048;-63
2022/11/28 08:17:45;;;;;;;11.20;8.85;;;;;;;12.10;65.24;100889.75;4928366;29;20046;-63
2022/11/28 08:20:12;;;;;;;10.68;8.75;;;;;;;12.12;65.31;100885.09;4939219;29;20387;-63
2022/11/28 08:22:39;;;;;;;10.88;8.75;;;;;;;12.13;65.42;100896.72;4938838;29;20040;-62
2022/11/28 08:25:06;;;;;;;9.88;8.23;;;;;;;12.13;65.16;100891.34;4938930;29;20079;-63
2022/11/28 08:27:32;;;;;;;9.68;8.68;;;;;;;12.13;65.27;100896.72;4939100;29;20067;-62
2022/11/28 08:29:59;;;;;;;10.70;8.52;;;;;;;12.14;65.36;100890.38;4938941;29;20384;-63
2022/11/28 08:32:29;;;;;;;9.63;8.18;;;;;;;12.15;65.20;100897.47;4938746;29;20047;-63
2022/11/28 08:34:55;;;;;;;9.82;8.30;;;;;;;12.14;65.51;100901.13;4934810;29;20529;-62
2022/11/28 08:37:22;;;;;;;9.98;8.35;;;;;;;12.14;65.59;100902.00;4919901;29;20403;-63
2022/11/28 08:39:48;;;;;;;11.27;8.63;;;;;;;12.13;65.25;100897.59;4919321;29;20040;-63
2022/11/28 08:42:15;;;;;;;10.20;8.43;;;;;;;12.14;65.70;100896.59;4918988;29;20116;-63
2022/11/28 08:44:41;;;;;;;10.55;8.10;;;;;;;12.15;65.75;100906.41;4919613;29;20044;-62
2022/11/28 08:47:08;;;;;;;10.52;8.88;;;;;;;12.20;65.39;100906.03;4919562;29;20112;-62
2022/11/28 08:49:43;;;;;;;12.35;9.40;;;;;;;12.20;65.40;100903.34;4919056;29;20487;-63
2022/11/28 08:52:10;;;;;;;9.52;8.52;;;;;;;12.24;65.46;100904.84;4910050;29;20067;-64
2022/11/28 08:54:37;;;;;;;10.13;9.13;;;;;;;12.28;65.39;100911.69;4884030;29;20045;-63
2022/11/28 08:57:04;;;;;;;13.90;9.35;;;;;;;12.26;65.30;100909.13;4900355;29;20121;-63
2022/11/28 08:59:30;;;;;;;9.98;7.75;;;;;;;12.28;65.33;100909.00;4900545;29;20100;-64
2022/11/28 09:01:57;;;;;;;11.05;8.68;;;;;;;12.29;65.55;100908.03;4900201;29;20108;-63
2022/11/28 09:04:23;;;;;;;10.68;9.40;;;;;;;12.30;65.35;100907.91;4900276;29;20056;-66
2022/11/28 09:06:50;;;;;;;11.80;9.20;;;;;;;12.30;65.51;100907.06;4899271;29;20081;-64
2022/11/28 09:09:19;;;;;;;11.77;8.80;;;;;;;12.31;65.17;100908.78;4900463;29;20053;-63
2022/11/28 09:11:46;;;;;;;12.82;8.77;;;;;;;12.30;65.21;100907.06;4883437;29;20056;-62
2022/11/28 09:14:12;;;;;;;9.63;8.63;;;;;;;12.29;65.19;100913.41;4899441;29;20059;-63
2022/11/28 09:16:39;;;;;;;9.50;8.07;;;;;;;12.30;65.43;100915.13;4899294;29;20088;-63
2022/11/28 09:19:08;;;;;;;11.20;9.30;;;;;;;12.32;65.30;100910.47;4899241;29;20563;-62
2022/11/28 09:21:36;;;;;;;9.55;8.55;;;;;;;12.34;65.32;100916.63;4899264;29;20041;-62
2022/11/28 09:24:03;;;;;;;11.85;9.55;;;;;;;12.34;65.30;100911.22;4899298;29;20045;-63
2022/11/28 09:26:30;;;;;;;10.27;8.77;;;;;;;12.35;65.30;100916.50;4882347;29;20049;-62
2022/11/28 09:28:59;;;;;;;10.07;9.05;;;;;;;12.36;65.59;100918.22;4899693;29;20052;-62
2022/11/28 09:31:29;;;;;;;10.10;8.98;;;;;;;12.39;65.29;100917.13;4884003;29;20048;-62
2022/11/28 09:33:56;;;;;;;10.18;9.10;;;;;;;12.37;65.43;100913.69;4899981;29;20104;-62
2022/11/28 09:36:23;;;;;;;10.55;9.45;;;;;;;12.39;65.39;100928.75;4867528;29;20060;-62
2022/11/28 09:38:50;;;;;;;10.38;9.07;;;;;;;12.40;65.52;100922.38;4899700;29;20492;-63
2022/11/28 09:41:48;;;;;;;11.13;9.95;;;;;;;12.43;65.79;100920.44;4900181;29;20067;-62
2022/11/28 09:44:41;;;;;;;12.55;10.90;;;;;;;12.43;65.61;100918.59;4883123;29;20045;-63
2022/11/28 09:47:18;;;;;;;10.50;9.43;;;;;;;12.48;65.50;100926.31;4899695;29;20104;-62
2022/11/28 09:49:57;;;;;;;11.77;9.80;;;;;;;12.49;65.50;100926.19;4899689;29;20052;-62
2022/11/28 09:52:31;;;;;;;12.52;10.52;;;;;;;12.49;65.59;100919.94;4882889;29;20096;-63
2022/11/28 09:54:58;;;;;;;12.60;10.23;;;;;;;12.49;65.66;100920.81;4882433;29;20089;-63
2022/11/28 09:57:49;;;;;;;13.57;10.55;;;;;;;12.51;65.47;100932.31;4899612;29;20052;-63
2022/11/28 10:00:40;;;;;;;11.98;10.63;;;;;;;12.55;65.43;100933.81;4899714;29;20065;-63
2022/11/28 10:03:27;;;;;;;12.32;10.93;;;;;;;12.59;65.64;100932.59;4899359;29;20080;-62
2022/11/28 10:06:28;;;;;;;13.88;11.27;;;;;;;12.61;65.34;100929.78;4899678;29;20104;-63
2022/11/28 10:09:13;;;;;;;11.98;10.68;;;;;;;12.61;65.15;100930.63;4899372;29;20106;-63
2022/11/28 10:11:42;;;;;;;12.67;11.27;;;;;;;12.63;65.46;100931.41;4898944;29;20055;-63
2022/11/28 10:14:18;;;;;;;12.88;10.93;;;;;;;12.65;65.54;100932.13;4898933;29;20048;-63
2022/11/28 10:16:57;;;;;;;;;;;;;;;12.70;65.27;100938.03;4899603;29;20515;-62
2022/11/28 10:19:36;;;;;;;12.70;10.70;;;;;;;12.74;65.24;100930.56;4898161;29;19960;-64
2022/11/28 10:22:43;;;;;;;12.25;10.95;;;;;;;12.72;65.23;100935.19;4898599;29;20135;-62
2022/11/28 10:25:26;;;;;;;13.68;11.25;;;;;;;12.71;65.29;100930.78;4898826;29;20052;-63
2022/11/28 10:27:54;;;;;;;14.13;12.27;;;;;;;12.70;65.29;100931.78;4899236;29;20404;-63
2022/11/28 10:30:23;;;;;;;14.10;10.68;;;;;;;12.71;65.29;100933.50;4898936;29;20052;-62
2022/11/28 10:32:59;;;;;;;13.88;12.23;;;;;;;12.72;65.74;100929.81;4898733;29;20049;-64
2022/11/28 10:35:50;;;;;;;13.05;11.35;;;;;;;12.73;65.71;100932.38;4898905;29;20053;-63
2022/11/28 10:38:24;;;;;;;14.07;11.43;;;;;;;12.78;65.56;100929.34;4899118;29;20448;-63
2022/11/28 10:41:06;;;;;;;12.13;10.80;;;;;;;12.80;65.48;100923.81;4898681;29;20100;-62
2022/11/28 10:43:58;;;;;;;12.93;10.82;;;;;;;12.83;65.68;100920.88;4898797;29;20411;-62
2022/11/28 10:46:55;;;;;;;13.98;10.75;;;;;;;12.86;65.60;100926.88;4881773;29;20055;-62
2022/11/28 10:49:55;;;;;;;13.32;11.63;;;;;;;12.87;65.35;100925.03;4898722;29;20407;-63
2022/11/28 10:52:38;;;;;;;11.90;10.43;;;;;;;12.89;65.44;100932.03;4898473;29;20052;-63
2022/11/28 10:55:20;;;;;;;12.68;10.40;;;;;;;12.90;65.54;100931.06;4898307;29;20085;-63
2022/11/28 10:58:12;;;;;;;12.48;10.15;;;;;;;12.90;65.88;100939.13;4898596;29;20131;-63
2022/11/28 11:00:41;;;;;;;12.50;10.35;;;;;;;12.89;65.77;100932.03;4898539;29;20052;-63
2022/11/28 11:03:12;;;;;;;15.93;10.38;;;;;;;12.90;65.53;100930.19;4898176;29;20051;-64
2022/11/28 11:05:39;;;;;;;12.85;10.38;;;;;;;12.91;65.85;100931.91;4898354;29;20127;-62
2022/11/28 11:08:19;;;;;;;11.55;9.98;;;;;;;12.92;65.83;100921.00;4898405;29;20044;-63
2022/11/28 11:11:02;;;;;;;11.73;9.32;;;;;;;12.94;65.82;100928.97;4898420;29;20052;-63
2022/11/28 11:13:31;;;;;;;12.70;10.07;;;;;;;12.97;65.91;100931.41;4898215;29;20381;-63
2022/11/28 11:16:04;;;;;;;11.07;9.82;;;;;;;12.96;65.62;100925.16;4898070;29;20415;-62
2022/11/28 11:18:33;;;;;;;11.48;9.38;;;;;;;12.99;65.58;100926.75;4881769;29;20037;-62
2022/11/28 11:21:20;;;;;;;12.80;10.35;;;;;;;13.00;65.79;100925.78;4897881;29;20112;-63
2022/11/28 11:23:48;;;;;;;11.07;9.85;;;;;;;13.02;65.64;100931.91;4898143;29;20061;-62
2022/11/28 11:26:23;;;;;;;11.55;9.60;;;;;;;13.03;65.81;100925.53;4913148;29;20564;-63
2022/11/28 11:28:51;;;;;;;12.43;10.05;;;;;;;13.07;65.77;100926.16;4917106;29;20075;-63
2022/11/28 11:31:42;;;;;;;13.75;10.88;;;;;;;13.09;65.59;100929.59;4916307;29;20048;-64
2022/11/28 11:34:15;;;;;;;12.13;10.15;;;;;;;13.11;65.89;100927.63;4917195;29;20377;-63
2022/11/28 11:36:42;;;;;;;12.38;10.55;;;;;;;13.13;65.82;100925.66;4917254;29;20052;-63
2022/11/28 11:39:08;;;;;;;14.77;11.27;;;;;;;13.15;65.77;100931.78;4916999;29;20048;-63
2022/11/28 11:41:37;;;;;;;13.95;11.18;;;;;;;13.14;65.44;100920.13;4916712;29;20103;-63
2022/11/28 11:44:12;;;;;;;14.45;12.10;;;;;;;13.13;65.81;100928.34;4916799;29;20048;-64
2022/11/28 11:47:01;;;;;;;;;;;;;;;13.17;65.61;100928.03;4917433;29;20501;-62
2022/11/28 11:49:33;;;;;;;12.93;10.73;;;;;;;13.21;65.44;100928.63;4917005;29;19923;-63